createdAt,value
2022-09-10T17:44:20.969Z,4.20
2022-09-10T17:47:19.169Z,4.05
2022-09-10T17:49:58.427Z,3.92
2022-09-10T17:52:25.907Z,4.10
2022-09-10T17:54:53.945Z,4.60
2022-09-10T17:57:27.962Z,4.60
2022-09-10T18:02:22.020Z,3.78
2022-09-10T18:04:50.275Z,4.45
2022-09-10T18:07:17.272Z,5.05
2022-09-10T18:09:44.089Z,4.55
2022-09-10T18:12:11.257Z,4.22
2022-09-10T18:14:38.534Z,4.63
2022-09-10T18:17:05.489Z,4.82
2022-09-10T18:19:33.219Z,4.45
2022-09-10T18:22:01.533Z,4.72
2022-09-10T18:24:29.371Z,4.50
2022-09-10T18:26:57.586Z,4.88
2022-09-10T18:29:27.115Z,5.60
2022-09-10T18:31:56.431Z,4.63
2022-09-10T18:34:27.802Z,5.20
2022-09-10T18:37:01.246Z,5.03
2022-09-10T18:39:30.531Z,5.38
2022-09-10T18:42:00.935Z,5.07
2022-09-10T18:44:39.023Z,5.70
2022-09-10T18:47:17.657Z,6.40
2022-09-10T18:49:50.585Z,6.43
2022-09-10T18:52:24.109Z,6.30
2022-09-10T18:54:51.513Z,7.03
2022-09-10T18:57:25.114Z,8.10
2022-09-10T18:59:54.098Z,7.53
2022-09-10T19:02:21.251Z,9.02
2022-09-10T19:05:09.662Z,8.32
2022-09-10T19:07:42.123Z,8.70
2022-09-10T19:10:16.486Z,8.65
2022-09-10T19:12:43.942Z,8.25
2022-09-10T19:15:11.346Z,7.60
2022-09-10T19:17:38.219Z,7.93
2022-09-10T19:20:05.714Z,7.32
2022-09-10T19:22:33.839Z,6.97
2022-09-10T19:25:01.413Z,7.35
